Latest Coastal Weather Observations for Swanbourne

IDW60701

Issued at 1:33 am WST Thursday 3 September 2026 (issued every 10 minutes, with the page automatically refreshed every 10 minutes)

About coastal observations | Map of coastal stations | Coastal observations for WA | Marine services | Other Formats
Station Details ID: 009215 Name: SWANBOURNE Lat: -31.96 Lon: 115.76 Height: 40.96 m
Data from the previous 72 hours. | See also: Recent months at Swanbourne
Date/Time
WST
Wind Sea
Height
m
Swell Vis
km
Cloud Weather Temp
°C
Press
MSL
hPa
Rain since
9am
mm
Dir  Spd
kts
Gust
kts
Height
m
Period
s
Dir
03/01:30am ENE 3 3 - - - - - - - 13.0 - 0.6
03/01:00am W 2 3 - - - - - - - 13.0 - 0.6
03/12:30am CALM 0 0 - - - - - - - 13.1 - 0.6
03/12:00am CALM 0 0 - - - - - - - 13.5 - 0.6
 
Date/Time
WST
Wind Sea
Height
m
Swell Vis
km
Cloud Weather Temp
°C
Press
MSL
hPa
Rain since
9am
mm
Dir  Spd
kts
Gust
kts
Height
m
Period
s
Dir
02/11:30pm CALM 0 0 - - - - - - - 13.9 - 0.6
02/11:00pm CALM 0 0 - - - - - - - 14.1 - 0.6
02/10:30pm CALM 0 0 - - - - - - - 14.3 - 0.6
02/10:00pm CALM 0 0 - - - - - - - 14.4 - 0.4
02/09:30pm W 4 5 - - - - - - - 14.6 - 0.4
02/09:00pm WNW 2 4 - - - - - - Rain 14.4 - 0.4
02/08:30pm W 6 11 - - - - - - - 14.8 - 0.0
02/08:00pm W 10 14 - - - - - - - 14.9 - 0.0
02/07:30pm N 3 5 - - - - - - - 14.4 - 0.0
02/07:00pm N 3 4 - - - - - - - 14.1 - 0.0
02/06:30pm NW 5 6 - - - - - - - 14.5 - 0.0
02/06:00pm WNW 9 13 - - - - - - - 15.8 - 0.0
02/05:30pm WNW 7 10 - - - - - - - 16.3 - 0.0
02/05:00pm WNW 8 13 - - - - - - - 16.7 - 0.0
02/04:30pm W 10 13 - - - - - - - 17.1 - 0.0
02/04:00pm WNW 7 9 - - - - - - - 17.4 - 0.0
02/03:30pm WNW 7 10 - - - - - - - 17.4 - 0.0
02/03:00pm WNW 8 11 - - - - - - - 17.2 - 0.0
02/02:30pm W 9 13 - - - - - - - 16.9 - 0.0
02/02:00pm WSW 5 7 - - - - - - - 17.2 - 0.0
02/01:30pm W 6 8 - - - - - - - 17.2 - 0.0
02/01:00pm W 4 7 - - - - - - - 18.3 - 0.0
02/12:30pm WNW 4 6 - - - - - - - 17.4 - 0.0
02/12:00pm WSW 5 8 - - - - - - - 18.1 - 0.0
02/11:30am SW 9 14 - - - - - - - 17.1 - 0.0
02/11:00am SW 8 12 - - - - - - - 17.4 - 0.0
02/10:30am W 5 10 - - - - - - - 16.6 - 0.0
02/10:00am W 6 10 - - - - - - - 16.8 - 0.0
02/09:30am W 6 9 - - - - - - - 16.9 - 0.0
02/09:00am SW 5 9 - - - - - - - 16.1 - 0.2
02/08:30am SW 6 11 - - - - - - - 15.8 - 0.2
02/08:00am SW 4 7 - - - - - - - 15.2 - 0.2
02/07:30am W 6 9 - - - - - - - 15.0 - 0.2
02/07:00am SW 8 13 - - - - - - - 15.1 - 0.2
02/06:30am W 4 6 - - - - - - - 14.7 - 0.2
02/06:00am W 6 10 - - - - - - - 14.8 - 0.2
02/05:30am WSW 4 7 - - - - - - - 14.7 - 0.2
02/05:00am SW 5 11 - - - - - - - 14.6 - 0.2
02/04:30am WSW 6 10 - - - - - - - 14.6 - 0.2
02/04:00am SW 6 8 - - - - - - - 14.6 - 0.2
02/03:30am W 9 12 - - - - - - - 14.7 - 0.2
02/03:00am WSW 7 10 - - - - - - - 14.1 - 0.2
02/02:30am ENE 2 3 - - - - - - - 12.5 - 0.2
02/02:00am ENE 3 3 - - - - - - - 12.5 - 0.2
02/01:30am ENE 3 3 - - - - - - - 12.6 - 0.2
02/01:00am ENE 3 3 - - - - - - - 12.5 - 0.2
02/12:30am ENE 4 4 - - - - - - - 12.4 - 0.2
02/12:00am NE 3 4 - - - - - - - 12.3 - 0.2
 
Date/Time
WST
Wind Sea
Height
m
Swell Vis
km
Cloud Weather Temp
°C
Press
MSL
hPa
Rain since
9am
mm
Dir  Spd
kts
Gust
kts
Height
m
Period
s
Dir
01/11:30pm ENE 4 4 - - - - - - - 12.3 - 0.2
01/11:00pm E 3 4 - - - - - - - 12.3 - 0.2
01/10:30pm SE 3 3 - - - - - - - 12.9 - 0.2
01/10:00pm SSE 4 4 - - - - - - - 12.7 - 0.2
01/09:30pm SE 4 5 - - - - - - - 12.5 - 0.2
01/09:00pm SSE 5 6 - - - - - - - 12.6 - 0.2
01/08:30pm SSE 5 5 - - - - - - - 12.6 - 0.2
01/08:00pm SSE 4 5 - - - - - - - 13.1 - 0.2
01/07:30pm SSE 4 5 - - - - - - - 12.9 - 0.2
01/07:00pm S 4 6 - - - - - - - 13.3 - 0.2
01/06:30pm SSW 6 9 - - - - - - - 13.6 - 0.2
01/06:00pm SSW 6 10 - - - - - - - 14.4 - 0.2
01/05:30pm SSW 6 8 - - - - - - - 14.8 - 0.2
01/05:00pm SSW 7 10 - - - - - - - 15.2 - 0.2
01/04:30pm SSW 8 12 - - - - - - - 15.3 - 0.2
01/04:00pm SSW 9 15 - - - - - - - 15.7 - 0.2
01/03:30pm SSW 10 14 - - - - - - - 16.0 - 0.2
01/03:00pm SSW 9 13 - - - - - - - 16.5 - 0.2
01/02:30pm SSW 9 13 - - - - - - - 16.7 - 0.2
01/02:00pm SSW 9 13 - - - - - - - 16.8 - 0.2
01/01:30pm SSW 8 12 - - - - - - - 17.1 - 0.2
01/01:00pm SW 8 10 - - - - - - - 17.0 - 0.2
01/12:30pm WSW 6 8 - - - - - - - 17.7 - 0.2
01/12:00pm W 3 5 - - - - - - Recent precip. 17.9 - 0.2
01/11:30am ESE 3 6 - - - - - - - 18.1 - 0.2
01/11:00am ESE 2 5 - - - - - - - 16.8 - 0.0
01/10:30am SE 6 9 - - - - - - - 16.4 - 0.0
01/10:00am ENE 6 9 - - - - - - - 16.2 - 0.0
01/09:30am ESE 5 8 - - - - - - - 15.8 - 0.0
01/09:00am E 6 10 - - - - - - - 15.0 - 3.8
01/08:30am ESE 5 6 - - - - - - - 13.6 - 3.8
01/08:00am ESE 4 7 - - - - - - - 12.9 - 3.8
01/07:30am ESE 5 9 - - - - - - - 11.4 - 3.8
01/07:00am ESE 5 6 - - - - - - - 10.0 - 3.8
01/06:30am E 6 7 - - - - - - - 9.9 - 3.8
01/06:00am ESE 5 6 - - - - - - - 10.2 - 3.8
01/05:30am SE 4 5 - - - - - - - 10.4 - 3.8
01/05:00am ESE 5 6 - - - - - - - 10.6 - 3.8
01/04:30am SE 4 6 - - - - - - - 10.9 - 3.8
01/04:00am SE 4 7 - - - - - - - 11.2 - 3.8
01/03:30am SE 6 9 - - - - - - - 12.0 - 3.8
01/03:00am SE 4 7 - - - - - - - 12.1 - 3.8
01/02:30am SE 5 9 - - - - - - - 12.0 - 3.8
01/02:00am SE 4 8 - - - - - - - 11.8 - 3.8
01/01:30am SE 6 10 - - - - - - - 12.1 - 3.8
01/01:00am SE 7 12 - - - - - - - 12.0 - 3.8
01/12:30am SSE 8 15 - - - - - - - 11.9 - 3.8
01/12:00am SSE 12 19 - - - - - - - 11.8 - 3.8
 
Date/Time
WST
Wind Sea
Height
m
Swell Vis
km
Cloud Weather Temp
°C
Press
MSL
hPa
Rain since
9am
mm
Dir  Spd
kts
Gust
kts
Height
m
Period
s
Dir
31/11:30pm S 13 21 - - - - - - - 12.2 - 3.8
31/11:29pm S 13 21 - - - - - - - 12.2 - 3.8
31/11:07pm S 15 25 - - - - - - - 12.8 - 3.8
31/11:00pm S 12 22 - - - - - - - 13.2 - 3.8
31/10:30pm S 8 13 - - - - - - - 14.0 - 3.8
31/10:00pm S 10 15 - - - - - - - 14.4 - 3.8
31/09:30pm S 12 18 - - - - - - - 14.6 - 3.8
31/09:00pm SSW 12 18 - - - - - - Rain 15.5 - 3.2
31/08:30pm WSW 10 15 - - - - - - - 16.0 - 0.6
31/08:00pm W 8 12 - - - - - - - 17.9 - 0.0
31/07:30pm WNW 8 12 - - - - - - - 17.9 - 0.0
31/07:00pm W 9 14 - - - - - - - 17.9 - 0.0
31/06:30pm W 9 13 - - - - - - - 17.8 - 0.0
31/06:00pm W 9 14 - - - - - - - 17.8 - 0.0
31/05:30pm WNW 11 18 - - - - - - - 17.7 - 0.0
31/05:00pm WNW 8 11 - - - - - - - 18.8 - 0.0
31/04:30pm WNW 7 10 - - - - - - - 19.2 - 0.0
31/04:00pm WNW 9 10 - - - - - - - 20.2 - 0.0
31/03:30pm WNW 9 12 - - - - - - - 20.6 - 0.0
31/03:00pm WNW 10 13 - - - - - - - 20.4 - 0.0
31/02:30pm WNW 8 11 - - - - - - - 21.1 - 0.0
31/02:00pm WNW 7 9 - - - - - - - 20.4 - 0.0
31/01:30pm WNW 7 9 - - - - - - - 20.7 - 0.0
31/01:00pm WNW 8 12 - - - - - - - 20.3 - 0.0
31/12:30pm WNW 7 9 - - - - - - - 20.0 - 0.0
31/12:00pm WNW 6 8 - - - - - - - 21.2 - 0.0
31/11:30am NW 8 10 - - - - - - - 19.6 - 0.0
31/11:00am NW 8 10 - - - - - - - 20.2 - 0.0
31/10:30am NW 8 9 - - - - - - - 19.9 - 0.0
31/10:00am WNW 5 8 - - - - - - - 20.1 - 0.0
31/09:30am WNW 5 7 - - - - - - - 19.6 - 0.0
31/09:00am NW 5 7 - - - - - - - 18.9 - 0.0
31/08:30am NW 4 6 - - - - - - - 18.3 - 0.0
31/08:00am WNW 3 5 - - - - - - - 17.7 - 0.0
31/07:30am WNW 3 4 - - - - - - - 16.3 - 0.0
31/07:00am W 5 7 - - - - - - - 15.7 - 0.0
31/06:30am WNW 3 5 - - - - - - - 15.5 - 0.0
31/06:00am NNW 3 3 - - - - - - - 15.8 - 0.0
31/05:30am NNW 3 3 - - - - - - - 15.8 - 0.0
31/05:00am N 2 3 - - - - - - - 15.6 - 0.0
31/04:30am N 3 3 - - - - - - - 15.9 - 0.0
31/04:00am N 3 4 - - - - - - - 15.9 - 0.0
31/03:30am NNW 2 3 - - - - - - - 15.9 - 0.0
31/03:00am NNE 1 2 - - - - - - - 15.5 - 0.0
31/02:30am ESE 1 3 - - - - - - - 15.7 - 0.0
31/02:00am CALM 0 0 - - - - - - - 16.0 - 0.0

Other formats

Comma delimited format used in spreadsheet applications
http://www.bom.gov.au/fwo/IDW60701/IDW60701.94614.axf

JavaScript Object Notation format (JSON) in row-major order
http://www.bom.gov.au/fwo/IDW60701/IDW60701.94614.json

Data quality

Most of these data are generated automatically and are frequently updated. Quality checks on data are not normally performed. It is possible for incorrect values to appear. Refer to information at About Latest Weather Observations and please check the disclaimer before using these data.